Relevés horaires Chievres (Belgique)


Relevés horaires à Chievres - Dimanche 26 Avr. 2026
Heure UTC1 Température [°C] Vent [km/h] Hum. [%] Pres.4 [hPa] Visi. [Km] Nébu. [octa] Préc.5 [mm] Cond.
2m. Res. Ros. Dir.2 Vit. Moy. Raf.3
23:00 8.8 8.8 5.1 NNO 1.9 -- 3.7 78 1024.2(0.5/3h) 14 -- -- --
22:00 9.0 9.0 5.2 NNO 1.9 -- 5.6 77 1023.8(0.6/3h) 15 -- -- --
21:00 9.3 8.8 5.1 N 5.6 -- 7.4 75 1023.7(0.6/3h) >70 -- -- --
20:00 10.9 10.6 5.5 N 5.6 -- 7.4 69 1023.6(0.4/3h) >70 -- -- --
19:00 12.8 12.8 5.4 NNE 5.6 -- 7.4 61 1023.2(-0.1/3h) >70 -- -- --
18:00 15.3 15.3 5.1 NNE 5.6 -- 11.1 51 1022.8(-0.7/3h) >70 -- -- --
17:00 16.7 16.7 4.8 NNE 7.4 -- 11.1 45 1023(-0.9/3h) >70 -- -- --
16:00 17.6 17.6 4.3 NE 5.6 -- 9.3 41 1023.2(-0.9/3h) >70 -- -- --
15:00 17.3 17.3 4.8 NE 5.6 -- 11.1 44 1023.5(-1.0/3h) >70 -- -- --
14:00 17.0 17.0 5.7 N 5.6 -- 9.3 47 1023.8(-1.1/3h) >70 -- -- --
13:00 16.4 16.4 5.0 NE 5.6 -- 11.1 47 1024.2(-0.8/3h) >70 -- -- --
12:00 15.4 15.4 6.3 NE 5.6 -- 11.1 55 1024.7(-0.4/3h) 45 -- -- --
11:00 14.6 14.6 6.7 ENE 3.7 -- 11.1 59 1025(0.0/3h) 35 -- -- --
10:00 13.2 13.2 6.7 N 3.7 -- 9.3 65 1025.2(0.1/3h) 30 -- -- --
09:00 12.1 12 6.6 E 5.6 -- 9.3 69 1025.2(0.3/3h) 28 -- -- --
08:00 9.8 9.4 6.5 E 5.6 -- 9.3 80 1025(0.6/3h) 17 -- -- --
07:00 8.2 7 5.8 ENE 7.4 -- 9.3 85 1025.2(1.0/3h) 11 -- -- --
06:00 5.2 5.2 4.0 NNE 3.7 -- 5.6 92 1025(1.2/3h) 6 -- -- --
05:00 2.4 0.9 1.4 N 5.6 -- 5.6 93 1024.7(1.1/3h) 8 -- -- --
04:00 3.1 3.1 1.1 NNO 1.9 -- 3.7 87 1024.2(0.8/3h) 17 -- -- --
03:00 3.7 3.7 1.2 NNO 1.9 -- 3.7 84 1023.7(0.5/3h) 30 -- -- --
02:00 3.8 3.8 0.5 N 3.7 -- 3.7 79 1023.3(0.4/3h) 45 -- -- --
01:00 5.5 5.5 0.3 NNO 1.9 -- 3.7 69 1023.2(0.8/3h) >70 -- -- --
00:00 4.4 4.4 1.4 NNO 1.9 -- 7.4 81 1023.2(0.8/3h) 17 -- -- --

1 Coordinated Universal Time. Actuellement il est 12:00 locale et 10:00 UTC.

2 Le vent souffle depuis la direction indiquée vers la direction oposée.

3 Les rafales max. sont disponible 40 min après l'heure du relevé.

4 Pour les stations d'altitude (plus de 600m) le géopotentiel du niveau le plus proche de la pression obligatoire est indiqué.

5 Les stations disposant d'un diffuseur peuvent indiquer "trace". Cela signifie que des précipitations ont touchés le sol mais que la quantité est inférieure à 0.1 mm.

Récapitulatif de la journée
Température [°C] Vent [km/h] Ensoleillement4 [h] Precipitations totale5 [mm] Pression [Hpa]
Min1 Max.2 Moy.3 Max. Min Max.
2.4 17.7 0 11.1 0 h 0 min 0 1022.8 1025.2

1 Température minimale relevée entre 18:00 UTC la veille et 18:00 UTC le jour donné.

2 Température maximale relevée entre 06:00 UTC le jour donné et 06:00 UTC le lendemain.

3 Vent moyen de la journée basé sur les relevés horaires.

4 Ensoleillement en heures relevé entre 06:00 UTC la veille et 06:00 UTC le jour donné.

5 Précipitations totales tombées entre 06:00 UTC la jour donné et 06:00 UTC le lendemain.

Graphiques horaires